createdAt,value
2022-09-06T00:00:17.063Z,18.27
2022-09-06T00:02:45.034Z,18.34
2022-09-06T00:05:12.922Z,18.28
2022-09-06T00:07:39.710Z,18.27
2022-09-06T00:10:07.362Z,18.14
2022-09-06T00:12:34.126Z,18.16
2022-09-06T00:15:00.829Z,18.23
2022-09-06T00:17:27.662Z,18.25
2022-09-06T00:19:54.312Z,18.27
2022-09-06T00:24:47.594Z,18.24
2022-09-06T00:27:14.193Z,18.22
2022-09-06T00:29:40.887Z,18.23
2022-09-06T00:32:08.482Z,18.13
2022-09-06T00:34:35.134Z,18.02
2022-09-06T00:37:01.791Z,17.94
2022-09-06T00:39:28.465Z,17.83
2022-09-06T00:41:55.111Z,17.84
2022-09-06T00:44:21.746Z,17.77
2022-09-06T00:46:50.806Z,17.72
2022-09-06T00:49:26.045Z,17.54
2022-09-06T00:52:01.810Z,17.56
2022-09-06T00:54:28.800Z,17.37
2022-09-06T00:56:57.918Z,17.41
2022-09-06T00:59:31.351Z,17.49
2022-09-06T01:01:58.941Z,17.50
2022-09-06T01:04:27.109Z,17.54
2022-09-06T01:07:06.485Z,17.56
2022-09-06T01:09:47.375Z,17.54
2022-09-06T01:12:30.494Z,17.47
2022-09-06T01:15:20.662Z,17.44
2022-09-06T01:17:53.415Z,17.52
2022-09-06T01:20:45.373Z,17.55
2022-09-06T01:23:33.798Z,17.50
2022-09-06T01:26:15.584Z,17.44
2022-09-06T01:28:45.098Z,17.39
2022-09-06T01:31:36.730Z,17.34
2022-09-06T01:34:06.289Z,17.38
2022-09-06T01:36:49.778Z,17.38
2022-09-06T01:39:34.321Z,17.37
2022-09-06T01:42:10.240Z,17.27
2022-09-06T01:44:41.085Z,17.25
2022-09-06T01:47:29.451Z,17.30
2022-09-06T01:50:17.063Z,17.23
2022-09-06T01:52:58.862Z,17.13
2022-09-06T01:56:04.073Z,17.14
2022-09-06T01:58:58.991Z,17.17
2022-09-06T02:01:43.353Z,17.16
2022-09-06T02:04:27.170Z,17.15
2022-09-06T02:07:13.367Z,17.15
2022-09-06T02:09:43.712Z,17.11
2022-09-06T02:12:13.426Z,17.06
2022-09-06T02:14:48.121Z,17.01
2022-09-06T02:17:19.746Z,16.93
2022-09-06T02:19:53.753Z,16.90
2022-09-06T02:22:24.080Z,16.88
2022-09-06T02:24:53.766Z,16.80
2022-09-06T02:27:20.575Z,16.61
2022-09-06T02:29:47.279Z,16.61
2022-09-06T02:32:19.723Z,16.63
2022-09-06T02:34:46.817Z,16.64
2022-09-06T02:37:15.232Z,16.54
2022-09-06T02:39:41.899Z,16.48
2022-09-06T02:42:11.590Z,16.49
2022-09-06T02:44:38.385Z,16.53
2022-09-06T02:47:05.770Z,16.28
2022-09-06T02:49:32.648Z,16.22
2022-09-06T02:51:59.324Z,16.21
2022-09-06T02:54:25.962Z,16.27
2022-09-06T02:56:52.753Z,16.13
2022-09-06T02:59:19.652Z,16.07
2022-09-06T03:01:46.279Z,16.10
2022-09-06T03:04:12.964Z,16.10
2022-09-06T03:06:39.551Z,16.04
2022-09-06T03:09:06.145Z,16.07
2022-09-06T03:11:32.793Z,16.09
2022-09-06T03:14:00.691Z,16.13
2022-09-06T03:16:27.592Z,16.15
2022-09-06T03:18:54.291Z,16.12
2022-09-06T03:21:20.953Z,16.09
2022-09-06T03:23:47.538Z,16.08
2022-09-06T03:26:14.167Z,16.09
2022-09-06T03:28:41.069Z,16.07
2022-09-06T03:31:07.804Z,16.04
2022-09-06T03:33:34.643Z,15.99
2022-09-06T03:36:03.156Z,15.99
2022-09-06T03:38:30.295Z,15.99
2022-09-06T03:40:57.357Z,15.98
2022-09-06T03:43:25.566Z,15.96
2022-09-06T03:45:54.598Z,15.93
2022-09-06T03:48:23.416Z,15.89
2022-09-06T03:50:53.999Z,15.85
2022-09-06T03:53:21.374Z,15.83
2022-09-06T03:55:49.966Z,15.82
2022-09-06T03:58:18.204Z,15.78
2022-09-06T04:00:45.233Z,15.75
2022-09-06T04:03:12.733Z,15.75
2022-09-06T04:05:39.391Z,15.70
2022-09-06T04:08:06.145Z,15.67
2022-09-06T04:10:32.979Z,15.62
2022-09-06T04:12:59.594Z,15.60
2022-09-06T04:15:29.020Z,15.59
2022-09-06T04:17:58.534Z,15.53
2022-09-06T04:20:26.599Z,15.52
2022-09-06T04:22:53.684Z,15.43
2022-09-06T04:25:22.633Z,15.42
2022-09-06T04:27:49.265Z,15.40
2022-09-06T04:30:16.222Z,15.42
2022-09-06T04:32:42.985Z,15.38
2022-09-06T04:35:09.776Z,15.34
2022-09-06T04:37:36.344Z,15.31
2022-09-06T04:40:03.930Z,15.29
2022-09-06T04:42:30.861Z,15.27
2022-09-06T04:44:57.431Z,15.26
2022-09-06T04:47:25.080Z,15.20
2022-09-06T04:49:51.783Z,15.19
2022-09-06T04:52:18.369Z,15.18
2022-09-06T04:54:44.973Z,15.13
2022-09-06T04:57:11.567Z,15.11
2022-09-06T04:59:38.166Z,15.09
2022-09-06T05:02:04.911Z,15.09
2022-09-06T05:04:31.622Z,15.09
2022-09-06T05:07:02.986Z,15.06
2022-09-06T05:09:30.910Z,15.06
2022-09-06T05:11:57.811Z,15.07
2022-09-06T05:14:24.578Z,15.03
2022-09-06T05:16:51.473Z,15.02
2022-09-06T05:19:19.098Z,15.05
2022-09-06T05:21:46.041Z,15.06
2022-09-06T05:24:12.704Z,15.03
2022-09-06T05:26:39.320Z,15.07
2022-09-06T05:29:06.242Z,14.96
2022-09-06T05:31:34.630Z,14.89
2022-09-06T05:34:01.405Z,14.98
2022-09-06T05:36:29.514Z,15.00
2022-09-06T05:38:57.306Z,14.98
2022-09-06T05:41:24.897Z,15.11
2022-09-06T05:43:51.499Z,15.14
2022-09-06T05:46:18.443Z,15.21
2022-09-06T05:48:52.174Z,15.30
2022-09-06T05:51:18.811Z,15.31
2022-09-06T05:53:45.946Z,15.36
2022-09-06T05:56:14.601Z,15.49
2022-09-06T05:58:41.325Z,15.57
2022-09-06T06:01:13.569Z,15.59
2022-09-06T06:03:40.416Z,15.59
2022-09-06T06:06:07.274Z,15.55
2022-09-06T06:08:35.674Z,15.55
2022-09-06T06:11:02.514Z,15.55
2022-09-06T06:13:29.951Z,15.45
2022-09-06T06:15:56.704Z,15.44
2022-09-06T06:18:23.464Z,15.47
2022-09-06T06:20:50.612Z,15.48
2022-09-06T06:23:17.222Z,15.57
2022-09-06T06:25:43.856Z,15.68
2022-09-06T06:28:10.450Z,15.74
2022-09-06T06:30:37.035Z,15.82
2022-09-06T06:33:03.700Z,15.88
2022-09-06T06:35:30.278Z,15.98
2022-09-06T06:37:57.078Z,16.09
2022-09-06T06:40:23.863Z,16.16
2022-09-06T06:42:50.539Z,16.26
2022-09-06T06:45:17.156Z,16.45
2022-09-06T06:47:43.964Z,16.47
2022-09-06T06:50:10.741Z,16.56
2022-09-06T06:52:37.385Z,16.74
2022-09-06T06:55:05.995Z,16.95
2022-09-06T06:57:32.977Z,17.07
2022-09-06T06:59:59.664Z,17.22
2022-09-06T07:02:26.399Z,17.41
2022-09-06T07:04:53.016Z,17.41
2022-09-06T07:07:36.692Z,17.48
2022-09-06T07:12:55.860Z,18.34
2022-09-06T07:15:22.553Z,18.68
2022-09-06T07:17:49.173Z,18.88
2022-09-06T07:20:20.375Z,18.70
2022-09-06T07:22:47.098Z,18.73
2022-09-06T07:25:19.032Z,18.98
2022-09-06T07:27:48.945Z,19.46
2022-09-06T07:30:16.491Z,19.80
2022-09-06T07:32:43.188Z,20.38
2022-09-06T07:35:09.972Z,20.93
2022-09-06T07:37:36.771Z,21.10
2022-09-06T07:40:07.641Z,21.67
2022-09-06T07:42:36.431Z,22.13
2022-09-06T07:45:04.244Z,22.77
2022-09-06T07:55:32.679Z,23.27
2022-09-06T07:57:59.260Z,23.19
2022-09-06T08:00:25.855Z,23.22
2022-09-06T08:02:52.457Z,23.93
2022-09-06T08:10:52.243Z,24.74
2022-09-06T08:13:18.848Z,25.02
2022-09-06T08:15:45.404Z,25.33
2022-09-06T08:18:12.158Z,25.47
2022-09-06T08:20:38.944Z,25.70
2022-09-06T08:23:11.654Z,25.69
2022-09-06T08:25:38.272Z,25.62
2022-09-06T08:28:05.040Z,26.32
2022-09-06T08:30:33.066Z,26.24
2022-09-06T08:32:59.885Z,26.39
2022-09-06T08:35:26.526Z,26.72
2022-09-06T08:37:53.170Z,26.48
2022-09-06T08:40:22.072Z,26.89
2022-09-06T08:42:48.922Z,27.03
2022-09-06T08:45:21.856Z,27.01
2022-09-06T08:47:50.877Z,27.13
2022-09-06T08:50:18.250Z,26.37
2022-09-06T08:53:18.559Z,26.65
2022-09-06T08:55:55.286Z,27.08
2022-09-06T08:58:40.892Z,26.96
2022-09-06T09:01:32.596Z,27.07
2022-09-06T09:04:05.551Z,26.98
2022-09-06T09:06:33.178Z,26.73
2022-09-06T09:09:08.932Z,27.99
2022-09-06T09:11:36.381Z,27.69
2022-09-06T09:14:08.764Z,27.24
2022-09-06T09:16:35.737Z,27.57
2022-09-06T09:19:05.425Z,28.48
2022-09-06T09:21:36.420Z,28.83
2022-09-06T09:24:09.870Z,28.24
2022-09-06T09:27:04.007Z,28.92
2022-09-06T09:29:35.692Z,30.15
2022-09-06T09:32:03.453Z,29.72
2022-09-06T09:34:39.889Z,30.44
2022-09-06T09:40:57.294Z,29.23
2022-09-06T09:43:55.170Z,30.26
2022-09-06T09:46:24.774Z,30.05
2022-09-06T09:49:06.906Z,29.20
2022-09-06T09:52:03.606Z,29.75
2022-09-06T09:54:32.154Z,30.17
2022-09-06T09:56:59.228Z,30.40
2022-09-06T09:59:40.379Z,30.11
2022-09-06T10:02:27.577Z,29.30
2022-09-06T10:05:02.276Z,30.05
2022-09-06T10:07:29.202Z,30.87
2022-09-06T10:10:00.832Z,30.94
2022-09-06T10:12:30.690Z,31.74
2022-09-06T10:14:57.861Z,30.45
2022-09-06T10:17:33.383Z,29.88
2022-09-06T10:20:05.052Z,30.54
2022-09-06T10:22:34.303Z,30.02
2022-09-06T10:25:19.653Z,29.34
2022-09-06T10:28:23.995Z,29.44
2022-09-06T10:31:12.702Z,29.76
2022-09-06T10:34:10.378Z,30.22
2022-09-06T10:37:16.577Z,30.00
2022-09-06T10:39:58.786Z,29.43
2022-09-06T10:42:31.367Z,30.37
2022-09-06T10:45:16.723Z,31.75
2022-09-06T10:48:14.749Z,31.26
2022-09-06T10:50:50.640Z,30.98
2022-09-06T10:53:43.553Z,31.35
2022-09-06T10:56:17.504Z,31.77
2022-09-06T11:02:15.875Z,33.01
2022-09-06T11:07:35.545Z,33.97
2022-09-06T11:10:23.896Z,34.12
2022-09-06T11:12:55.808Z,34.12
2022-09-06T11:15:27.123Z,33.30
2022-09-06T11:18:18.820Z,33.38
2022-09-06T11:20:50.957Z,33.13
2022-09-06T11:23:48.390Z,33.36
2022-09-06T11:26:40.442Z,33.33
2022-09-06T11:29:43.035Z,32.73
2022-09-06T11:32:30.298Z,32.62
2022-09-06T11:35:03.317Z,32.59
2022-09-06T11:37:43.933Z,32.48
2022-09-06T11:40:30.224Z,32.18
2022-09-06T11:42:59.266Z,32.61
2022-09-06T11:45:45.931Z,32.43
2022-09-06T11:48:34.325Z,32.24
2022-09-06T11:51:02.948Z,31.89
2022-09-06T11:53:33.891Z,32.32
2022-09-06T11:56:00.416Z,32.99
2022-09-06T11:58:33.405Z,32.81
2022-09-06T12:01:12.328Z,33.79
2022-09-06T12:06:40.749Z,34.21
2022-09-06T12:09:31.158Z,33.20
2022-09-06T12:11:59.436Z,33.50
2022-09-06T12:14:33.794Z,33.33
2022-09-06T12:17:07.213Z,33.62
2022-09-06T12:19:44.474Z,34.13
2022-09-06T12:22:29.629Z,34.51
2022-09-06T12:25:02.051Z,34.43
2022-09-06T12:27:39.995Z,33.29
2022-09-06T12:30:12.537Z,32.45
2022-09-06T12:32:51.957Z,32.35
2022-09-06T12:38:17.210Z,32.18
2022-09-06T12:40:49.737Z,32.51
2022-09-06T12:43:19.063Z,32.47
2022-09-06T12:45:51.568Z,32.24
2022-09-06T12:48:30.676Z,32.72
2022-09-06T12:51:19.424Z,33.25
2022-09-06T12:53:54.119Z,33.26
2022-09-06T12:56:23.190Z,33.47
2022-09-06T12:58:49.885Z,33.83
2022-09-06T13:01:26.567Z,33.85
2022-09-06T13:04:15.782Z,34.17
2022-09-06T13:06:45.831Z,33.44
2022-09-06T13:09:16.636Z,32.84
2022-09-06T13:11:46.632Z,32.11
2022-09-06T13:14:19.530Z,32.04
2022-09-06T13:16:51.230Z,32.27
2022-09-06T13:19:33.775Z,32.26
2022-09-06T13:22:01.858Z,31.47
2022-09-06T13:24:34.504Z,31.15
2022-09-06T13:27:21.407Z,30.86
2022-09-06T13:29:58.331Z,30.67
2022-09-06T13:32:26.911Z,30.72
2022-09-06T13:34:57.086Z,31.42
2022-09-06T13:37:33.742Z,31.91
2022-09-06T13:40:05.539Z,32.20
2022-09-06T13:42:35.912Z,32.34
2022-09-06T13:45:24.894Z,31.40
2022-09-06T13:47:56.859Z,30.97
2022-09-06T13:50:29.930Z,31.30
2022-09-06T13:52:57.163Z,31.11
2022-09-06T13:55:28.088Z,30.97
2022-09-06T13:57:54.666Z,30.88
2022-09-06T14:00:21.291Z,30.42
2022-09-06T14:02:49.005Z,30.32
2022-09-06T14:05:16.712Z,30.44
2022-09-06T14:07:45.055Z,30.58
2022-09-06T14:10:11.672Z,30.51
2022-09-06T14:12:38.591Z,30.49
2022-09-06T14:15:06.208Z,30.12
2022-09-06T14:17:35.571Z,29.75
2022-09-06T14:20:02.334Z,29.91
2022-09-06T14:22:29.048Z,30.04
2022-09-06T14:24:55.769Z,30.32
2022-09-06T14:27:22.386Z,30.83
2022-09-06T14:29:49.349Z,30.98
2022-09-06T14:32:19.293Z,31.27
2022-09-06T14:34:48.947Z,31.52
2022-09-06T14:37:15.642Z,30.86
2022-09-06T14:39:42.346Z,30.87
2022-09-06T14:42:09.054Z,30.36
2022-09-06T14:44:35.688Z,29.98
2022-09-06T14:47:03.406Z,30.42
2022-09-06T14:49:32.126Z,30.76
2022-09-06T14:51:58.817Z,30.91
2022-09-06T14:54:29.164Z,30.77
2022-09-06T14:56:56.403Z,30.41
2022-09-06T14:59:23.180Z,30.52
2022-09-06T15:01:49.875Z,30.60
2022-09-06T15:04:16.769Z,30.62
2022-09-06T15:06:47.461Z,30.64
2022-09-06T15:09:18.650Z,30.37
2022-09-06T15:11:51.875Z,30.48
2022-09-06T15:14:27.045Z,30.45
2022-09-06T15:17:00.390Z,30.29
2022-09-06T15:19:29.366Z,30.25
2022-09-06T15:21:58.806Z,29.87
2022-09-06T15:24:26.271Z,29.81
2022-09-06T15:26:55.059Z,29.84
2022-09-06T15:29:23.004Z,29.99
2022-09-06T15:31:50.723Z,29.84
2022-09-06T15:34:22.576Z,29.76
2022-09-06T15:36:50.123Z,29.57
2022-09-06T15:39:17.581Z,29.51
2022-09-06T15:41:44.438Z,29.40
2022-09-06T15:44:13.649Z,29.36
2022-09-06T15:46:52.208Z,29.30
2022-09-06T15:49:26.922Z,29.34
2022-09-06T15:51:56.236Z,29.29
2022-09-06T15:54:41.374Z,29.14
2022-09-06T15:57:08.353Z,28.98
2022-09-06T15:59:34.990Z,28.87
2022-09-06T16:02:02.225Z,28.78
2022-09-06T16:04:29.204Z,28.67
2022-09-06T16:06:56.787Z,28.64
2022-09-06T16:09:23.694Z,28.63
2022-09-06T16:11:50.394Z,28.44
2022-09-06T16:14:17.912Z,28.32
2022-09-06T16:16:44.956Z,28.29
2022-09-06T16:19:13.052Z,28.20
2022-09-06T16:21:42.074Z,28.09
2022-09-06T16:24:10.965Z,27.99
2022-09-06T16:26:46.758Z,27.85
2022-09-06T16:29:18.047Z,27.76
2022-09-06T16:31:45.405Z,27.72
2022-09-06T16:34:12.703Z,27.65
2022-09-06T16:36:39.997Z,27.62
2022-09-06T16:39:07.488Z,27.51
2022-09-06T16:41:45.779Z,27.45
2022-09-06T16:44:16.765Z,27.41
2022-09-06T16:46:46.320Z,27.35
2022-09-06T16:49:13.262Z,27.27
2022-09-06T16:51:40.021Z,27.16
2022-09-06T16:54:06.931Z,27.03
2022-09-06T16:56:36.001Z,26.96
2022-09-06T16:59:06.520Z,26.90
2022-09-06T17:01:35.230Z,26.84
2022-09-06T17:04:05.792Z,26.81
2022-09-06T17:06:34.232Z,26.76
2022-09-06T17:09:00.983Z,26.68
2022-09-06T17:11:28.758Z,26.63
2022-09-06T17:13:56.234Z,26.55
2022-09-06T17:16:42.484Z,26.51
2022-09-06T17:19:10.077Z,26.39
2022-09-06T17:21:37.432Z,26.30
2022-09-06T17:24:05.197Z,26.20
2022-09-06T17:26:34.130Z,26.12
2022-09-06T17:29:01.536Z,26.08
2022-09-06T17:31:28.808Z,25.99
2022-09-06T17:33:55.828Z,25.86
2022-09-06T17:36:25.239Z,25.76
2022-09-06T17:38:54.158Z,25.70
2022-09-06T17:41:27.455Z,25.63
2022-09-06T17:43:55.046Z,25.55
2022-09-06T17:46:28.370Z,25.43
2022-09-06T17:48:56.387Z,25.36
2022-09-06T17:51:23.045Z,25.31
2022-09-06T17:53:49.796Z,25.21
2022-09-06T17:56:18.001Z,25.12
2022-09-06T17:58:53.421Z,25.03
2022-09-06T18:01:20.204Z,24.95
2022-09-06T18:03:47.820Z,24.87
2022-09-06T18:06:20.016Z,24.76
2022-09-06T18:08:47.902Z,24.66
2022-09-06T18:11:20.920Z,24.56
2022-09-06T18:13:48.300Z,24.47
2022-09-06T18:16:15.079Z,24.40
2022-09-06T18:18:42.192Z,24.30
2022-09-06T18:21:08.838Z,24.21
2022-09-06T18:23:35.820Z,24.12
2022-09-06T18:26:07.785Z,24.01
2022-09-06T18:28:36.484Z,23.91
2022-09-06T18:31:12.361Z,23.81
2022-09-06T18:33:40.480Z,23.69
2022-09-06T18:36:09.246Z,23.58
2022-09-06T18:38:38.164Z,23.41
2022-09-06T18:41:07.503Z,23.20
2022-09-06T18:43:36.429Z,23.03
2022-09-06T18:46:09.092Z,22.87
2022-09-06T18:48:37.304Z,22.75
2022-09-06T18:51:09.512Z,22.68
2022-09-06T18:53:36.263Z,22.65
2022-09-06T18:56:02.936Z,22.54
2022-09-06T18:58:29.729Z,22.30
2022-09-06T19:01:08.180Z,22.22
2022-09-06T19:03:36.454Z,22.20
2022-09-06T19:06:09.615Z,22.16
2022-09-06T19:08:36.386Z,22.15
2022-09-06T19:11:09.425Z,22.13
2022-09-06T19:13:37.966Z,22.11
2022-09-06T19:16:06.130Z,22.12
2022-09-06T19:18:36.909Z,22.10
2022-09-06T19:21:15.108Z,22.09
2022-09-06T19:23:44.954Z,22.07
2022-09-06T19:26:18.050Z,22.03
2022-09-06T19:28:53.374Z,21.99
2022-09-06T19:31:20.401Z,21.97
2022-09-06T19:36:15.895Z,21.82
2022-09-06T19:39:01.983Z,21.75
2022-09-06T19:41:30.502Z,21.73
2022-09-06T19:43:58.263Z,21.69
2022-09-06T19:46:25.824Z,21.65
2022-09-06T19:48:54.098Z,21.64
2022-09-06T19:51:21.490Z,21.57
2022-09-06T19:53:53.436Z,21.53
2022-09-06T19:56:26.390Z,21.46
2022-09-06T19:58:58.403Z,21.34
2022-09-06T20:01:31.187Z,21.34
2022-09-06T20:04:01.688Z,21.31
2022-09-06T20:06:28.842Z,21.31
2022-09-06T20:09:02.404Z,21.26
2022-09-06T20:11:31.080Z,21.20
2022-09-06T20:13:57.805Z,21.02
2022-09-06T20:16:28.384Z,21.00
2022-09-06T20:18:55.519Z,20.92
2022-09-06T20:21:22.540Z,20.91
2022-09-06T20:23:51.042Z,20.87
2022-09-06T20:26:18.569Z,20.80
2022-09-06T20:28:45.890Z,20.79
2022-09-06T20:31:16.662Z,20.75
2022-09-06T20:33:47.198Z,20.66
2022-09-06T20:36:17.196Z,20.57
2022-09-06T20:38:51.251Z,20.53
2022-09-06T20:41:23.716Z,20.45
2022-09-06T20:43:55.770Z,20.37
2022-09-06T20:46:25.537Z,20.23
2022-09-06T20:48:56.326Z,20.27
2022-09-06T20:51:25.074Z,20.23
2022-09-06T20:53:56.036Z,20.16
2022-09-06T20:56:27.631Z,20.14
2022-09-06T20:59:02.525Z,20.13
2022-09-06T21:01:33.483Z,20.12
2022-09-06T21:04:01.690Z,20.06
2022-09-06T21:06:30.241Z,20.04
2022-09-06T21:08:57.684Z,20.00
2022-09-06T21:11:24.475Z,19.90
2022-09-06T21:13:55.773Z,19.85
2022-09-06T21:16:25.432Z,19.84
2022-09-06T21:19:00.567Z,19.83
2022-09-06T21:21:29.134Z,19.85
2022-09-06T21:23:56.257Z,19.75
2022-09-06T21:26:23.319Z,19.74
2022-09-06T21:28:50.342Z,19.74
2022-09-06T21:31:22.204Z,19.69
2022-09-06T21:33:55.022Z,19.69
2022-09-06T21:36:33.113Z,19.70
2022-09-06T21:39:02.444Z,19.69
2022-09-06T21:41:30.256Z,19.70
2022-09-06T21:44:01.984Z,19.65
2022-09-06T21:46:35.152Z,19.62
2022-09-06T21:49:07.433Z,19.56
2022-09-06T21:51:40.235Z,19.57
2022-09-06T21:54:07.023Z,19.62
2022-09-06T21:56:35.970Z,19.63
2022-09-06T21:59:03.482Z,19.63
2022-09-06T22:01:32.604Z,19.60
2022-09-06T22:04:00.329Z,19.53
2022-09-06T22:06:29.040Z,19.51
2022-09-06T22:08:57.546Z,19.53
2022-09-06T22:11:27.226Z,19.53
2022-09-06T22:13:54.298Z,19.54
2022-09-06T22:16:22.603Z,19.51
2022-09-06T22:18:49.947Z,19.44
2022-09-06T22:21:20.161Z,19.37
2022-09-06T22:23:58.127Z,19.28
2022-09-06T22:26:27.280Z,19.27
2022-09-06T22:28:59.336Z,19.05
2022-09-06T22:31:27.957Z,18.91
2022-09-06T22:33:55.519Z,18.80
2022-09-06T22:36:23.862Z,18.74
2022-09-06T22:38:57.565Z,18.60
2022-09-06T22:41:26.021Z,18.63
2022-09-06T22:43:52.842Z,18.68
2022-09-06T22:46:20.348Z,18.66
2022-09-06T22:48:47.298Z,18.67
2022-09-06T22:51:13.910Z,18.67
2022-09-06T22:53:40.553Z,18.59
2022-09-06T22:56:07.267Z,18.42
2022-09-06T22:58:35.328Z,18.08
2022-09-06T23:01:10.441Z,17.84
2022-09-06T23:03:37.917Z,17.77
2022-09-06T23:06:05.011Z,17.75
2022-09-06T23:08:32.470Z,17.73
2022-09-06T23:11:07.852Z,17.67
2022-09-06T23:13:34.998Z,17.54
2022-09-06T23:16:07.315Z,17.54
2022-09-06T23:18:34.397Z,17.57
2022-09-06T23:21:05.912Z,17.57
2022-09-06T23:23:32.822Z,17.63
2022-09-06T23:26:04.892Z,17.74
2022-09-06T23:28:31.681Z,17.81
2022-09-06T23:31:01.640Z,17.89
2022-09-06T23:33:29.116Z,17.95
2022-09-06T23:35:56.096Z,18.00
2022-09-06T23:38:22.728Z,17.99
2022-09-06T23:40:49.308Z,18.00
2022-09-06T23:43:16.000Z,18.04
2022-09-06T23:45:42.510Z,18.04
2022-09-06T23:48:09.120Z,18.04
2022-09-06T23:50:35.742Z,18.04
2022-09-06T23:53:02.342Z,18.12
2022-09-06T23:55:28.933Z,18.13
2022-09-06T23:57:55.561Z,18.09
